Time;durP1;ratioP1;P1;durP2;ratioP2;P2;SDS_P1;SDS_P2;PMS_P1;PMS_P2;Temp;Humidity;BMP_temperature;BMP_pressure;BME280_temperature;BME280_humidity;BME280_pressure;Samples;Min_cycle;Max_cycle;Signal;HPM_P1;HPM_P2
2023/01/21 00:01:30;;;;;;;30.60;21.47;;;0.00;99.90;-0.80;101145;;;;547429;262;24225;-75
2023/01/21 00:03:58;;;;;;;30.93;22.07;;;0.00;99.90;-0.80;101151;;;;547398;262;24227;-76
2023/01/21 00:06:26;;;;;;;37.20;22.40;;;-0.10;99.90;-0.90;101144;;;;547678;260;24175;-75
2023/01/21 00:08:54;;;;;;;34.43;22.93;;;-0.10;99.90;-0.90;101143;;;;549287;262;24215;-75
2023/01/21 00:11:22;;;;;;;34.57;23.20;;;-0.20;99.90;-1.00;101144;;;;548707;262;24185;-76
2023/01/21 00:13:50;;;;;;;30.17;20.67;;;-0.20;99.90;-1.00;101150;;;;548481;262;24282;-75
2023/01/21 00:16:18;;;;;;;34.57;23.27;;;-0.30;99.90;-1.00;101150;;;;547840;262;25259;-76
2023/01/21 00:18:49;;;;;;;34.27;22.97;;;-0.30;99.90;-1.00;101148;;;;548042;262;24223;-75
2023/01/21 00:21:14;;;;;;;34.40;21.93;;;-0.30;99.90;-1.00;101140;;;;547279;262;25215;-77
2023/01/21 00:23:42;;;;;;;32.37;22.80;;;-0.20;99.90;-1.00;101131;;;;548139;262;24227;-75
2023/01/21 00:26:10;;;;;;;31.10;22.20;;;-0.30;99.90;-1.00;101136;;;;547484;262;24222;-75
2023/01/21 00:28:42;;;;;;;33.00;21.73;;;-0.20;99.90;-0.90;101141;;;;547823;262;24204;-76
2023/01/21 00:31:07;;;;;;;33.40;22.17;;;-0.20;99.90;-0.90;101137;;;;547465;262;24230;-74
2023/01/21 00:33:38;;;;;;;28.13;19.90;;;-0.20;99.90;-0.90;101142;;;;547522;262;24238;-78
2023/01/21 00:36:11;;;;;;;32.13;22.37;;;-0.20;99.90;-0.90;101136;;;;547633;262;24228;-74
2023/01/21 00:38:39;;;;;;;34.43;22.27;;;-0.20;99.90;-0.90;101146;;;;547510;262;24243;-77
2023/01/21 00:41:10;;;;;;;30.97;22.13;;;-0.20;99.90;-0.90;101146;;;;547829;262;24193;-76
2023/01/21 00:43:39;;;;;;;36.13;24.03;;;-0.20;99.90;-0.90;101145;;;;547331;262;24212;-79
2023/01/21 00:46:07;;;;;;;33.93;21.93;;;-0.20;99.90;-0.90;101148;;;;547169;262;24181;-76
2023/01/21 00:48:36;;;;;;;33.70;22.57;;;-0.20;99.90;-0.90;101148;;;;547365;262;24194;-78
2023/01/21 00:51:03;;;;;;;35.10;22.67;;;-0.20;99.90;-0.90;101147;;;;547546;262;24225;-75
2023/01/21 00:53:31;;;;;;;34.53;23.30;;;-0.20;99.90;-1.00;101153;;;;547168;262;24189;-76
2023/01/21 00:56:02;;;;;;;36.17;22.90;;;-0.20;99.90;-1.00;101140;;;;547564;262;24184;-77
2023/01/21 00:58:31;;;;;;;37.10;23.47;;;-0.20;99.90;-0.90;101144;;;;547150;258;24209;-75
2023/01/21 01:01:04;;;;;;;35.63;22.57;;;-0.30;99.90;-0.90;101145;;;;547305;262;24205;-79
2023/01/21 01:03:32;;;;;;;35.03;22.27;;;-0.20;99.90;-0.90;101139;;;;547559;262;24202;-75
2023/01/21 01:06:09;;;;;;;40.63;23.17;;;-0.20;99.90;-0.80;101138;;;;547332;262;24215;-78
2023/01/21 01:08:41;;;;;;;33.97;22.17;;;-0.10;99.90;-0.80;101131;;;;557015;257;25222;-79
2023/01/21 01:11:05;;;;;;;34.87;22.50;;;-0.10;99.90;-0.70;101138;;;;546962;262;24177;-74
2023/01/21 01:13:35;;;;;;;39.90;22.47;;;0.00;99.90;-0.70;101139;;;;547568;262;24207;-75
2023/01/21 01:16:01;;;;;;;35.70;22.77;;;0.10;99.90;-0.60;101132;;;;546837;262;24221;-75
2023/01/21 01:18:32;;;;;;;36.97;23.23;;;0.00;99.90;-0.60;101137;;;;547871;260;24166;-76
2023/01/21 01:20:57;;;;;;;36.20;23.27;;;0.20;99.90;-0.50;101135;;;;547873;262;25369;-73
2023/01/21 01:23:26;;;;;;;35.77;21.63;;;0.20;99.90;-0.50;101138;;;;548005;262;24198;-73
2023/01/21 01:25:56;;;;;;;35.67;22.90;;;0.20;99.90;-0.50;101132;;;;547882;262;24221;-74
2023/01/21 01:28:24;;;;;;;37.90;23.20;;;0.20;99.90;-0.40;101133;;;;547620;262;26336;-75
2023/01/21 01:30:55;;;;;;;31.30;18.83;;;0.30;99.90;-0.40;101143;;;;547625;262;24260;-74
2023/01/21 01:33:23;;;;;;;31.12;17.30;;;0.30;99.90;-0.30;101131;;;;542619;262;35860;-74
2023/01/21 01:35:48;;;;;;;22.83;12.43;;;0.40;99.90;-0.20;101141;;;;547322;262;24202;-74
2023/01/21 01:38:19;;;;;;;16.37;7.33;;;0.50;99.90;-0.10;101147;;;;547321;262;24202;-75
2023/01/21 01:40:44;;;;;;;24.93;9.87;;;0.60;99.90;0.00;101144;;;;547049;262;24241;-74
2023/01/21 01:43:15;;;;;;;18.63;10.53;;;0.70;99.90;0.00;101151;;;;547955;262;24295;-75
2023/01/21 01:45:42;;;;;;;20.13;10.07;;;0.70;99.90;0.10;101145;;;;547472;262;24197;-75
2023/01/21 01:48:10;;;;;;;21.73;9.93;;;0.80;99.90;0.10;101146;;;;547378;262;24232;-75
2023/01/21 01:50:41;;;;;;;17.60;10.30;;;0.80;99.90;0.10;101142;;;;547663;261;24180;-74
2023/01/21 01:53:09;;;;;;;13.93;8.63;;;0.90;99.90;0.20;101156;;;;547542;262;24197;-75
2023/01/21 01:55:38;;;;;;;15.97;8.70;;;1.00;99.90;0.30;101146;;;;547511;262;25207;-74
2023/01/21 01:58:06;;;;;;;17.33;7.57;;;1.00;99.90;0.40;101143;;;;547320;258;24225;-76
2023/01/21 02:00:33;;;;;;;7.20;4.50;;;1.10;99.90;0.50;101151;;;;547426;262;24247;-77
2023/01/21 02:05:48;;;;;;;2.90;2.00;;;1.40;99.90;0.70;101147;;;;547541;262;24207;-76
2023/01/21 02:08:15;;;;;;;6.80;1.90;;;1.40;99.90;0.80;101143;;;;547279;262;24201;-76
2023/01/21 02:10:43;;;;;;;4.37;2.13;;;1.50;99.90;0.90;101145;;;;547577;262;24232;-73
2023/01/21 02:13:14;;;;;;;2.70;2.03;;;1.60;99.90;1.00;101134;;;;547543;262;24191;-78
2023/01/21 02:16:00;;;;;;;4.07;2.43;;;1.60;99.90;1.00;101127;;;;546968;262;24177;-75
2023/01/21 02:18:38;;;;;;;1.73;1.63;;;1.70;99.90;1.00;101148;;;;547284;262;24196;-77
2023/01/21 02:21:39;;;;;;;4.63;1.87;;;1.70;99.90;1.10;101146;;;;547269;262;24205;-74
2023/01/21 02:24:33;;;;;;;1.63;1.53;;;1.80;99.90;1.20;101162;;;;547202;262;24200;-75
2023/01/21 02:27:09;;;;;;;1.70;1.60;;;1.90;99.90;1.30;101177;;;;546758;262;24232;-75
2023/01/21 02:30:34;;;;;;;3.73;1.20;;;2.00;99.90;1.40;101181;;;;547716;260;24219;-76
2023/01/21 02:33:29;;;;;;;16.13;2.03;;;2.00;99.90;1.40;101179;;;;548570;262;24192;-75
2023/01/21 02:36:19;;;;;;;1.40;1.23;;;2.10;99.90;1.50;101188;;;;547909;262;24175;-75
2023/01/21 02:38:49;;;;;;;8.93;1.93;;;2.10;99.90;1.50;101188;;;;547892;262;24181;-75
2023/01/21 02:41:26;;;;;;;1.90;1.20;;;2.20;99.90;1.50;101188;;;;547284;262;24216;-75
2023/01/21 02:44:07;;;;;;;1.47;1.37;;;2.30;99.90;1.60;101183;;;;547509;262;24211;-77
2023/01/21 02:46:46;;;;;;;2.53;1.70;;;2.20;99.90;1.60;101183;;;;548002;261;24220;-74
2023/01/21 02:49:41;;;;;;;1.87;1.33;;;2.30;99.90;1.70;101194;;;;540662;262;24213;-76
2023/01/21 02:52:18;;;;;;;1.47;1.30;;;2.30;99.90;1.70;101192;;;;547522;262;24231;-79
2023/01/21 02:54:46;;;;;;;3.47;2.07;;;2.40;99.90;1.70;101196;;;;547805;262;24213;-75
2023/01/21 02:57:14;;;;;;;2.57;2.33;;;2.40;99.90;1.80;101197;;;;547043;258;24239;-77
2023/01/21 02:59:42;;;;;;;2.87;1.63;;;2.50;99.90;1.80;101204;;;;547387;262;24199;-76
2023/01/21 03:02:39;;;;;;;9.43;2.13;;;2.50;99.90;1.80;101180;;;;547776;262;24244;-76
2023/01/21 03:05:16;;;;;;;5.93;3.33;;;2.50;99.90;1.80;101202;;;;547715;262;24213;-76
2023/01/21 03:07:51;;;;;;;2.90;2.23;;;2.50;99.90;1.90;101214;;;;547051;262;25259;-74
2023/01/21 03:10:18;;;;;;;5.78;4.07;;;2.50;99.90;1.90;101209;;;;544366;261;35810;-76
2023/01/21 03:13:04;;;;;;;7.10;4.43;;;2.50;99.90;1.90;101225;;;;546845;262;24248;-76
2023/01/21 03:18:26;;;;;;;4.90;3.10;;;2.60;99.90;1.90;101191;;;;547554;262;24220;-76
2023/01/21 03:20:55;;;;;;;4.70;2.90;;;2.60;99.90;1.90;101208;;;;546911;262;24212;-76
2023/01/21 03:23:26;;;;;;;3.60;1.53;;;2.60;99.90;1.90;101217;;;;547198;261;24192;-77
2023/01/21 03:25:54;;;;;;;2.63;2.27;;;2.50;99.90;1.90;101212;;;;547138;262;24185;-75
2023/01/21 03:28:21;;;;;;;2.50;2.13;;;2.60;99.90;1.90;101201;;;;547544;262;24203;-75
2023/01/21 03:30:49;;;;;;;3.40;2.30;;;2.60;99.90;1.90;101195;;;;547288;262;24232;-76
2023/01/21 03:33:17;;;;;;;3.03;2.67;;;2.60;99.90;1.90;101210;;;;547504;262;24230;-74
2023/01/21 03:35:45;;;;;;;3.30;1.80;;;2.50;99.90;1.90;101214;;;;547179;262;24220;-76
2023/01/21 03:38:22;;;;;;;1.27;0.90;;;2.60;99.90;1.90;101212;;;;547576;262;24189;-78
2023/01/21 03:41:02;;;;;;;1.00;0.93;;;2.60;99.90;1.90;101219;;;;547284;260;24204;-74
2023/01/21 03:43:29;;;;;;;2.23;1.37;;;2.60;99.90;1.90;101217;;;;548528;261;24222;-75
2023/01/21 03:46:09;;;;;;;2.77;1.53;;;2.60;99.90;1.90;101219;;;;548051;262;24262;-73
2023/01/21 03:48:45;;;;;;;1.10;0.93;;;2.60;99.90;1.90;101230;;;;547870;262;24227;-75
2023/01/21 03:51:31;;;;;;;0.93;0.90;;;2.60;99.90;1.90;101210;;;;548105;262;24169;-77
2023/01/21 03:53:59;;;;;;;1.27;1.17;;;2.60;99.90;1.90;101212;;;;547120;262;24211;-77
2023/01/21 03:56:27;;;;;;;2.87;1.80;;;2.60;99.90;1.90;101211;;;;548066;262;24203;-76
2023/01/21 03:58:54;;;;;;;1.30;0.97;;;2.60;99.90;1.90;101222;;;;547682;258;24181;-77
2023/01/21 04:01:22;;;;;;;1.30;0.63;;;2.60;99.90;1.90;101220;;;;547590;262;24176;-73
2023/01/21 04:03:50;;;;;;;1.20;1.20;;;2.60;99.90;1.90;101224;;;;547830;262;24247;-74
2023/01/21 04:06:19;;;;;;;1.07;1.00;;;2.60;99.90;1.90;101243;;;;547435;262;24246;-74
2023/01/21 04:08:47;;;;;;;1.50;1.40;;;2.50;99.90;1.90;101233;;;;547767;262;24204;-74
2023/01/21 04:11:15;;;;;;;3.50;1.03;;;2.60;99.90;1.90;101243;;;;547339;262;25242;-74
2023/01/21 04:13:42;;;;;;;1.37;1.20;;;2.50;99.90;1.90;101255;;;;547778;262;24231;-74
2023/01/21 04:16:10;;;;;;;2.40;1.50;;;2.60;99.90;1.90;101236;;;;547449;262;24219;-74
2023/01/21 04:18:38;;;;;;;1.03;0.87;;;2.60;99.90;1.90;101228;;;;547557;262;24201;-74
2023/01/21 04:21:06;;;;;;;1.47;0.73;;;2.60;99.90;2.00;101241;;;;547316;262;24277;-74
2023/01/21 04:23:34;;;;;;;0.93;0.70;;;2.60;99.90;2.00;101242;;;;547615;262;24217;-75
2023/01/21 04:26:02;;;;;;;1.60;0.90;;;2.60;99.90;2.00;101272;;;;547352;262;24217;-76
2023/01/21 04:28:30;;;;;;;3.03;1.13;;;2.70;99.90;2.00;101238;;;;547578;262;24522;-75
2023/01/21 04:30:57;;;;;;;2.67;1.43;;;2.70;99.90;2.00;101252;;;;547402;262;24243;-75
2023/01/21 04:33:25;;;;;;;0.67;0.67;;;2.70;99.90;2.00;101254;;;;547613;262;24219;-74
2023/01/21 04:35:59;;;;;;;1.00;0.93;;;2.70;99.90;2.00;101244;;;;547176;262;24210;-75
2023/01/21 04:38:27;;;;;;;1.17;0.73;;;2.70;99.90;2.00;101259;;;;547566;262;24217;-77
2023/01/21 04:40:59;;;;;;;2.90;1.33;;;2.70;99.90;2.00;101249;;;;547226;262;24198;-77
2023/01/21 04:43:22;;;;;;;3.10;0.93;;;2.70;99.90;2.00;101254;;;;547229;262;24185;-75
2023/01/21 04:45:50;;;;;;;3.03;0.90;;;2.70;99.90;2.00;101254;;;;547286;262;24234;-77
2023/01/21 04:48:18;;;;;;;0.87;0.87;;;2.70;99.90;2.00;101263;;;;547585;262;24220;-75
2023/01/21 04:50:46;;;;;;;1.93;0.90;;;2.70;99.90;2.00;101260;;;;547289;262;24307;-75
2023/01/21 04:53:14;;;;;;;1.80;0.87;;;2.70;99.90;2.00;101238;;;;558397;255;24161;-74
2023/01/21 04:55:42;;;;;;;1.90;0.87;;;2.70;99.90;2.00;101252;;;;548432;260;24243;-75
2023/01/21 04:58:10;;;;;;;1.23;0.80;;;2.70;99.90;2.00;101248;;;;548188;258;24235;-74
2023/01/21 05:00:37;;;;;;;0.90;0.90;;;2.70;99.90;2.00;101249;;;;548259;262;24228;-74
2023/01/21 05:03:05;;;;;;;0.60;0.60;;;2.70;99.90;2.00;101245;;;;547763;262;24246;-74
2023/01/21 05:05:33;;;;;;;4.90;0.70;;;2.60;99.90;2.00;101250;;;;548008;262;24179;-74
2023/01/21 05:08:01;;;;;;;3.03;1.00;;;2.70;99.90;2.00;101257;;;;547779;262;24206;-75
2023/01/21 05:10:29;;;;;;;2.53;0.67;;;2.60;99.90;2.00;101236;;;;547975;262;24252;-77
2023/01/21 05:12:57;;;;;;;3.07;1.00;;;2.60;99.90;1.90;101239;;;;547561;262;24193;-76
2023/01/21 05:15:25;;;;;;;1.30;0.80;;;2.60;99.90;1.90;101241;;;;547799;262;24180;-76
2023/01/21 05:17:53;;;;;;;8.33;1.33;;;2.60;99.90;1.90;101241;;;;547407;262;24274;-75
2023/01/21 05:20:20;;;;;;;4.80;0.77;;;2.60;99.90;1.80;101208;;;;547811;262;24232;-76
2023/01/21 05:22:49;;;;;;;2.30;1.10;;;2.50;99.90;1.90;101230;;;;547392;262;25243;-75
2023/01/21 05:25:17;;;;;;;29.37;2.07;;;2.50;99.90;1.90;101231;;;;547859;262;24196;-78
2023/01/21 05:27:45;;;;;;;1.47;1.00;;;2.50;99.90;1.80;101227;;;;547504;262;24184;-76
2023/01/21 05:30:13;;;;;;;1.30;1.20;;;2.50;99.90;1.80;101212;;;;547341;262;24189;-77
2023/01/21 05:32:41;;;;;;;1.77;0.77;;;2.50;99.90;1.80;101231;;;;547618;262;24238;-74
2023/01/21 05:35:12;;;;;;;6.43;0.73;;;2.50;99.90;1.80;101224;;;;547196;262;24241;-74
2023/01/21 05:37:36;;;;;;;0.57;0.57;;;2.50;99.90;1.80;101245;;;;547394;262;25238;-77
2023/01/21 05:40:04;;;;;;;5.13;1.07;;;2.50;99.90;1.80;101240;;;;547227;262;25216;-77
2023/01/21 05:42:32;;;;;;;1.73;0.90;;;2.50;99.90;1.80;101249;;;;547598;262;24197;-78
2023/01/21 05:45:00;;;;;;;1.30;1.07;;;2.50;99.90;1.80;101251;;;;547284;262;24213;-77
2023/01/21 05:47:28;;;;;;;0.60;0.60;;;2.50;99.90;1.90;101252;;;;547558;262;24184;-78
2023/01/21 05:49:56;;;;;;;3.47;0.80;;;2.50;99.90;1.90;101270;;;;547290;262;24181;-78
2023/01/21 05:52:24;;;;;;;3.33;0.80;;;2.50;99.90;1.90;101266;;;;547549;262;24200;-76
2023/01/21 05:54:51;;;;;;;1.20;0.90;;;2.60;99.90;1.90;101271;;;;547315;262;24200;-77
2023/01/21 05:57:19;;;;;;;0.57;0.57;;;2.60;99.90;1.90;101246;;;;547455;258;24207;-75
2023/01/21 05:59:47;;;;;;;1.10;0.80;;;2.50;99.90;1.90;101254;;;;547551;262;25255;-75
2023/01/21 06:02:15;;;;;;;1.17;1.17;;;2.60;99.90;1.90;101245;;;;547557;262;24177;-75
2023/01/21 06:04:43;;;;;;;1.70;0.87;;;2.50;99.90;1.90;101245;;;;547769;260;24226;-75
2023/01/21 06:07:11;;;;;;;1.43;1.13;;;2.50;99.90;1.90;101240;;;;548612;262;24200;-75
2023/01/21 06:09:39;;;;;;;2.93;0.90;;;2.50;99.90;1.90;101257;;;;547950;262;24236;-74
2023/01/21 06:12:07;;;;;;;1.37;0.60;;;2.60;99.90;1.90;101223;;;;548318;262;24178;-74
2023/01/21 06:14:34;;;;;;;3.53;1.20;;;2.60;99.90;1.90;101240;;;;542992;262;35728;-75
2023/01/21 06:17:02;;;;;;;2.50;1.40;;;2.50;99.90;1.90;101242;;;;543290;262;35699;-75
2023/01/21 06:19:30;;;;;;;4.87;0.90;;;2.50;99.90;1.90;101231;;;;547765;262;24238;-76
2023/01/21 06:21:58;;;;;;;9.13;1.13;;;2.60;99.90;2.00;101226;;;;548052;262;24181;-75
2023/01/21 06:24:26;;;;;;;0.83;0.77;;;2.60;99.90;1.90;101226;;;;547558;262;24212;-76
2023/01/21 06:26:54;;;;;;;2.03;0.97;;;2.60;99.90;1.90;101245;;;;547826;262;24196;-77
2023/01/21 06:29:22;;;;;;;0.93;0.60;;;2.60;99.90;1.90;101233;;;;547352;262;24292;-78
2023/01/21 06:31:50;;;;;;;0.60;0.60;;;2.60;99.90;1.90;101248;;;;547766;262;24199;-74
2023/01/21 06:34:18;;;;;;;2.73;0.83;;;2.60;99.90;1.90;101216;;;;547355;262;24242;-77
2023/01/21 06:36:46;;;;;;;3.77;0.80;;;2.60;99.90;1.90;101241;;;;547784;262;24201;-78
2023/01/21 06:39:14;;;;;;;3.87;1.03;;;2.60;99.90;1.90;101239;;;;547401;262;24203;-78
2023/01/21 06:41:42;;;;;;;2.63;1.07;;;2.60;99.90;1.90;101259;;;;547530;262;24224;-77
2023/01/21 06:44:10;;;;;;;0.50;0.50;;;2.60;99.90;1.90;101244;;;;547532;262;24204;-74
2023/01/21 06:46:37;;;;;;;0.90;0.40;;;2.60;99.90;1.90;101245;;;;548758;262;24173;-78
2023/01/21 06:49:05;;;;;;;1.90;0.80;;;2.60;99.90;1.90;101259;;;;548446;262;24213;-75
2023/01/21 06:51:33;;;;;;;0.53;0.53;;;2.50;99.90;1.90;101264;;;;548780;262;24199;-77
2023/01/21 06:54:01;;;;;;;2.53;0.80;;;2.50;99.90;1.80;101249;;;;547670;262;24232;-76
2023/01/21 06:56:29;;;;;;;3.00;0.80;;;2.50;99.90;1.80;101258;;;;547804;262;24207;-77
2023/01/21 06:58:57;;;;;;;11.13;1.40;;;2.50;99.90;1.80;101257;;;;548313;258;24228;-75
2023/01/21 07:01:25;;;;;;;0.83;0.83;;;2.50;99.90;1.80;101259;;;;547405;262;24200;-77
2023/01/21 07:03:53;;;;;;;0.47;0.47;;;2.50;99.90;1.80;101255;;;;547562;262;24244;-75
2023/01/21 07:06:24;;;;;;;3.00;0.90;;;2.50;99.90;1.80;101255;;;;547376;262;24243;-76
2023/01/21 07:08:51;;;;;;;1.00;1.00;;;2.50;99.90;1.80;101263;;;;547621;262;24191;-78
2023/01/21 07:11:19;;;;;;;0.70;0.70;;;2.50;99.90;1.80;101269;;;;547721;262;24174;-78
2023/01/21 07:13:47;;;;;;;0.80;0.80;;;2.50;99.90;1.80;101300;;;;547604;262;24222;-79
2023/01/21 07:16:15;;;;;;;0.73;0.73;;;2.50;99.90;1.80;101276;;;;547751;260;24179;-78
2023/01/21 07:18:46;;;;;;;0.40;0.40;;;2.50;99.90;1.80;101281;;;;548716;262;24263;-78
2023/01/21 07:21:10;;;;;;;0.57;0.57;;;2.50;99.90;1.90;101296;;;;547600;262;24214;-78
2023/01/21 07:23:38;;;;;;;1.90;0.70;;;2.50;99.90;1.90;101283;;;;548275;262;24226;-78
2023/01/21 07:26:06;;;;;;;0.40;0.40;;;2.50;99.90;1.80;101262;;;;547788;262;24264;-77
2023/01/21 07:28:34;;;;;;;1.90;0.80;;;2.50;99.90;1.90;101277;;;;548003;262;24243;-78
2023/01/21 07:31:02;;;;;;;0.60;0.60;;;2.50;99.90;1.90;101274;;;;547718;262;24243;-77
2023/01/21 07:33:30;;;;;;;1.53;0.70;;;2.50;99.90;1.90;101278;;;;548003;262;24195;-78
2023/01/21 07:35:58;;;;;;;1.80;1.10;;;2.50;99.90;1.90;101276;;;;547535;262;24223;-78
2023/01/21 07:38:25;;;;;;;0.73;0.73;;;2.50;99.90;1.90;101267;;;;547824;262;25212;-77
2023/01/21 07:40:53;;;;;;;0.43;0.43;;;2.50;99.90;1.90;101299;;;;547618;262;24216;-78
2023/01/21 07:43:21;;;;;;;1.00;0.70;;;2.60;99.90;1.90;101315;;;;547917;262;24196;-79
2023/01/21 07:45:49;;;;;;;9.20;1.37;;;2.60;99.90;2.00;101291;;;;547552;262;24236;-78
2023/01/21 07:48:17;;;;;;;1.87;1.20;;;2.60;99.90;2.00;101283;;;;547952;262;24177;-78
2023/01/21 07:50:45;;;;;;;1.50;0.83;;;2.60;99.90;1.90;101265;;;;547515;262;25275;-76
2023/01/21 07:53:13;;;;;;;3.60;2.40;;;2.60;99.90;2.00;101291;;;;547730;262;24217;-78
2023/01/21 07:55:41;;;;;;;2.03;1.37;;;2.60;99.90;2.00;101290;;;;547302;262;24204;-76
2023/01/21 07:58:09;;;;;;;1.30;1.07;;;2.60;99.90;2.00;101279;;;;547376;258;24220;-77
2023/01/21 08:00:37;;;;;;;3.03;1.17;;;2.60;99.90;2.00;101267;;;;547275;262;24224;-76
2023/01/21 08:03:05;;;;;;;0.67;0.67;;;2.70;99.90;2.00;101273;;;;547558;262;25238;-75
2023/01/21 08:05:33;;;;;;;1.27;1.00;;;2.70;99.90;2.00;101278;;;;547300;262;24198;-75
2023/01/21 08:08:01;;;;;;;3.03;1.27;;;2.70;99.90;2.00;101274;;;;547545;262;25230;-75
2023/01/21 08:10:29;;;;;;;1.03;0.87;;;2.70;99.90;2.10;101294;;;;547560;262;24185;-73
2023/01/21 08:12:56;;;;;;;1.33;1.07;;;2.70;99.90;2.00;101278;;;;547294;262;24299;-74
2023/01/21 08:15:24;;;;;;;1.20;1.10;;;2.70;99.90;2.00;101279;;;;547551;262;24199;-77
2023/01/21 08:17:52;;;;;;;2.37;1.03;;;2.70;99.90;2.10;101279;;;;547278;262;24223;-78
2023/01/21 08:20:20;;;;;;;0.93;0.70;;;2.70;99.90;2.10;101307;;;;547512;262;24199;-74
2023/01/21 08:22:48;;;;;;;1.73;0.93;;;2.70;99.90;2.10;101295;;;;547271;262;25325;-75
2023/01/21 08:25:16;;;;;;;1.97;1.20;;;2.70;99.90;2.10;101271;;;;547495;262;24270;-76
2023/01/21 08:27:44;;;;;;;2.77;0.77;;;2.80;99.90;2.10;101279;;;;547665;260;24216;-78
2023/01/21 08:30:12;;;;;;;0.93;0.93;;;2.70;99.90;2.10;101257;;;;548664;262;24249;-76
2023/01/21 08:32:44;;;;;;;1.80;1.23;;;2.80;99.90;2.10;101275;;;;548020;262;24297;-79
2023/01/21 08:35:11;;;;;;;2.90;0.80;;;2.80;99.90;2.10;101278;;;;547665;262;24186;-76
2023/01/21 08:37:39;;;;;;;0.50;0.50;;;2.80;99.90;2.20;101278;;;;547759;262;24231;-75
2023/01/21 08:40:11;;;;;;;8.50;1.50;;;2.80;99.90;2.20;101289;;;;548016;262;24178;-76
2023/01/21 08:42:35;;;;;;;2.03;1.93;;;2.80;99.90;2.20;101269;;;;547477;262;24232;-78
2023/01/21 08:45:03;;;;;;;0.73;0.73;;;2.80;99.90;2.10;101282;;;;548007;262;24199;-78
2023/01/21 08:47:31;;;;;;;1.77;0.97;;;2.80;99.90;2.20;101264;;;;547494;262;24244;-78
2023/01/21 08:49:58;;;;;;;0.90;0.90;;;2.80;99.90;2.20;101288;;;;547779;262;24170;-77
2023/01/21 08:52:26;;;;;;;5.03;0.80;;;2.80;99.90;2.20;101271;;;;547521;262;24211;-78
2023/01/21 08:54:54;;;;;;;2.47;0.97;;;2.80;99.90;2.20;101279;;;;547798;262;24196;-78
2023/01/21 08:57:22;;;;;;;2.50;1.47;;;2.80;99.90;2.20;101276;;;;547394;258;24227;-79
2023/01/21 08:59:50;;;;;;;0.97;0.97;;;2.90;99.90;2.20;101283;;;;547820;262;24189;-78
2023/01/21 09:02:18;;;;;;;2.47;0.87;;;2.90;99.90;2.30;101279;;;;547415;262;24206;-78
2023/01/21 09:04:46;;;;;;;2.63;1.20;;;2.90;99.90;2.30;101270;;;;547606;262;24199;-78
2023/01/21 09:07:14;;;;;;;1.50;1.00;;;3.00;99.90;2.30;101285;;;;547198;262;24228;-79
2023/01/21 09:09:41;;;;;;;1.37;1.27;;;3.00;99.90;2.40;101285;;;;547545;262;24213;-79
2023/01/21 09:12:09;;;;;;;1.50;0.97;;;3.00;99.90;2.40;101274;;;;547203;262;24192;-79
2023/01/21 09:14:37;;;;;;;1.80;1.30;;;3.00;99.90;2.40;101247;;;;547618;262;24204;-78
2023/01/21 09:17:05;;;;;;;1.10;1.10;;;3.00;99.90;2.40;101263;;;;547362;262;24221;-76
2023/01/21 09:19:33;;;;;;;1.20;0.97;;;3.00;99.90;2.40;101284;;;;547556;262;24208;-78
2023/01/21 09:22:02;;;;;;;0.77;0.77;;;3.00;99.90;2.40;101251;;;;547335;262;24192;-79
2023/01/21 09:24:29;;;;;;;1.70;1.10;;;3.00;99.90;2.40;101261;;;;547565;262;24222;-78
2023/01/21 09:26:57;;;;;;;2.87;1.27;;;3.00;99.90;2.40;101260;;;;547265;262;24213;-78
2023/01/21 09:29:25;;;;;;;1.07;0.73;;;3.00;99.90;2.30;101254;;;;547653;262;24231;-78
2023/01/21 09:31:53;;;;;;;1.07;1.07;;;3.00;99.90;2.40;101256;;;;547293;262;24196;-77
2023/01/21 09:34:21;;;;;;;1.57;1.20;;;3.00;99.90;2.30;101259;;;;547643;262;24185;-76
2023/01/21 09:36:49;;;;;;;2.30;2.10;;;3.00;99.90;2.40;101240;;;;547314;262;24211;-77
2023/01/21 09:39:17;;;;;;;0.63;0.63;;;3.00;99.90;2.40;101214;;;;547944;260;24242;-75
2023/01/21 09:41:47;;;;;;;10.67;1.80;;;3.00;99.90;2.40;101229;;;;548718;262;24272;-76
2023/01/21 09:44:27;;;;;;;1.17;1.07;;;3.00;99.90;2.40;101228;;;;548060;262;24272;-79
2023/01/21 09:47:19;;;;;;;0.67;0.67;;;3.00;99.90;2.40;101231;;;;548430;262;24270;-76
2023/01/21 09:50:15;;;;;;;2.10;0.70;;;3.10;99.90;2.40;101244;;;;548162;262;24211;-77
2023/01/21 09:52:42;;;;;;;8.83;1.33;;;3.10;99.90;2.40;101231;;;;548414;262;24224;-75
2023/01/21 09:55:24;;;;;;;1.40;1.00;;;3.10;99.90;2.40;101181;;;;547784;262;24176;-77
2023/01/21 09:58:13;;;;;;;0.80;0.80;;;3.10;99.90;2.50;101231;;;;548280;258;24228;-78
2023/01/21 10:00:49;;;;;;;4.47;1.20;;;3.10;99.90;2.50;101211;;;;547781;262;24220;-80
2023/01/21 10:03:19;;;;;;;6.77;1.03;;;3.10;99.90;2.50;101203;;;;547849;262;24180;-78
2023/01/21 10:05:59;;;;;;;3.83;1.13;;;3.10;99.90;2.50;101229;;;;547158;262;25231;-80
2023/01/21 10:08:48;;;;;;;0.67;0.67;;;3.10;99.90;2.50;101202;;;;547808;262;24229;-74
2023/01/21 10:11:53;;;;;;;3.07;1.33;;;3.10;99.90;2.40;101210;;;;547175;262;24219;-78
2023/01/21 10:14:39;;;;;;;6.60;1.17;;;3.10;99.90;2.40;101196;;;;547827;262;25231;-74
2023/01/21 10:17:50;;;;;;;1.30;1.20;;;3.10;99.90;2.40;101203;;;;547541;262;24227;-77
2023/01/21 10:20:33;;;;;;;1.27;1.17;;;3.10;99.90;2.50;101206;;;;547548;262;25254;-78
2023/01/21 10:23:07;;;;;;;3.93;1.27;;;3.10;99.90;2.50;101201;;;;546845;262;24181;-78
2023/01/21 10:25:35;;;;;;;0.83;0.83;;;3.10;99.90;2.50;101199;;;;547176;262;24211;-78
2023/01/21 10:28:11;;;;;;;1.87;1.00;;;3.10;99.90;2.60;101206;;;;547176;262;24225;-76
2023/01/21 10:30:39;;;;;;;2.53;0.90;;;3.20;99.90;2.60;101194;;;;547203;262;24245;-78
2023/01/21 10:33:07;;;;;;;1.13;1.00;;;3.20;99.90;2.70;101215;;;;547107;262;24185;-76
2023/01/21 10:35:47;;;;;;;5.80;1.73;;;3.30;99.90;2.70;101218;;;;542488;262;35758;-79
2023/01/21 10:38:23;;;;;;;3.17;2.07;;;3.30;99.90;2.80;101201;;;;547108;262;24185;-78
2023/01/21 10:40:59;;;;;;;1.17;0.90;;;3.40;99.90;2.80;101218;;;;546744;262;24205;-77
2023/01/21 10:43:49;;;;;;;1.53;1.07;;;3.40;99.90;2.80;101189;;;;540571;262;24226;-77
2023/01/21 10:46:29;;;;;;;2.03;0.90;;;3.40;99.90;2.80;101204;;;;547623;262;24220;-78
2023/01/21 10:48:59;;;;;;;7.03;1.47;;;3.50;99.90;2.90;101201;;;;546755;262;24224;-79
2023/01/21 10:51:32;;;;;;;5.07;1.10;;;3.50;99.90;2.90;101203;;;;547975;260;24206;-77
2023/01/21 10:54:12;;;;;;;5.30;2.03;;;3.50;99.90;2.90;101203;;;;548050;262;24197;-78
2023/01/21 10:56:42;;;;;;;2.33;1.73;;;3.60;99.90;3.00;101227;;;;548035;262;24223;-76
2023/01/21 10:59:13;;;;;;;5.77;1.17;;;3.60;99.90;3.00;101227;;;;547631;262;24181;-78
2023/01/21 11:01:44;;;;;;;1.00;0.80;;;3.60;99.90;3.10;101175;;;;547671;262;24258;-78
2023/01/21 11:04:17;;;;;;;2.03;1.23;;;3.70;99.90;3.10;101192;;;;547780;262;24220;-77
2023/01/21 11:06:45;;;;;;;1.57;1.10;;;3.70;99.90;3.10;101194;;;;548088;262;24198;-78
2023/01/21 11:09:13;;;;;;;1.20;1.13;;;3.70;99.90;3.10;101176;;;;547570;262;24243;-78
2023/01/21 11:11:41;;;;;;;52.63;2.03;;;3.80;99.90;3.10;101179;;;;547792;262;24188;-75
2023/01/21 11:14:09;;;;;;;1.13;1.10;;;3.70;99.90;3.00;101180;;;;547434;262;24248;-78
2023/01/21 11:16:42;;;;;;;1.67;1.23;;;3.70;99.90;2.90;101197;;;;547871;262;24221;-78
2023/01/21 11:19:16;;;;;;;0.77;0.77;;;3.60;99.90;2.80;101234;;;;547366;262;24311;-75
2023/01/21 11:22:17;;;;;;;1.30;1.20;;;3.50;99.90;2.80;101184;;;;547544;261;24165;-74
2023/01/21 11:24:45;;;;;;;1.53;1.27;;;3.40;99.90;2.60;101188;;;;549123;260;24204;-75
2023/01/21 11:27:19;;;;;;;2.83;1.40;;;3.30;99.90;2.60;101176;;;;547301;262;24256;-75
2023/01/21 11:29:47;;;;;;;4.00;1.13;;;3.20;99.90;2.50;101183;;;;546972;262;24248;-75
2023/01/21 11:32:21;;;;;;;1.80;0.83;;;3.20;99.90;2.50;101183;;;;547322;262;24181;-75
2023/01/21 11:34:49;;;;;;;2.17;1.27;;;3.10;99.90;2.40;101184;;;;547546;262;25219;-74
2023/01/21 11:37:26;;;;;;;1.87;1.00;;;3.10;99.90;2.40;101184;;;;547384;262;24496;-75
2023/01/21 11:40:03;;;;;;;0.90;0.90;;;3.00;99.90;2.40;101182;;;;547774;262;24208;-77
2023/01/21 11:42:30;;;;;;;1.17;1.07;;;3.00;99.90;2.40;101175;;;;547497;262;24210;-78